Clipper Panorama — V7KT2 — position and weather

sailwx.info

Track history (hours):
 
Tides and Currents Weather Stations Pressure Air Temp Water Temp Dewpoint Dewpoint Depression Visibility Wind Speed Wind Dir Waves Ship Positions

Clipper Panorama

Last reported at 2017-Feb-16 07:33 UTC. Time now 2017-Feb-21 17:17 UTC.
Position N 39°31' W 009°50'.

Length 180 m; draft 8.1 m.

Type: Cargo ship. MMSI: 538007055.

Date/timePositionNaut miles runAvg speedWind from/ knotsBaromVisibWave heightAir tempDewpointWater temp
2017-Feb-16 07:33N 39°31' W 009°50'1212.2
2017-Feb-16 06:33N 39°19' W 009°50'1211.9
2017-Feb-16 05:34N 39°07' W 009°50'1211.9
2017-Feb-16 04:34N 38°55' W 009°50'1212.0
2017-Feb-16 03:34N 38°43' W 009°50'1211.9
2017-Feb-16 02:34N 38°31' W 009°47'1211.9
2017-Feb-16 01:34N 38°20' W 009°44'1211.8
2017-Feb-16 00:33N 38°08' W 009°40'1211.6
2017-Feb-15 23:33N 37°57' W 009°37'1111.5
2017-Feb-15 22:34N 37°46' W 009°34'1111.3
2017-Feb-15 21:33N 37°35' W 009°31'  
2017-Feb-08 19:20N 36°31' W 006°26'  
Track history (hours):
 
Tides and Currents Weather Stations Pressure Air Temp Water Temp Dewpoint Dewpoint Depression Visibility Wind Speed Wind Dir Waves Ship Positions

Clipper Panorama

Last reported at 2017-Feb-16 07:33 UTC. Time now 2017-Feb-21 17:17 UTC.
Position N 39°31' W 009°50'.

Length 180 m; draft 8.1 m.

Type: Cargo ship. MMSI: 538007055.

Date/timePositionNaut miles runAvg speedWind from/ knotsBaromVisibWave heightAir tempDewpointWater temp
2017-Feb-16 07:33N 39°31' W 009°50'1212.2
2017-Feb-16 06:33N 39°19' W 009°50'1211.9
2017-Feb-16 05:34N 39°07' W 009°50'1211.9
2017-Feb-16 04:34N 38°55' W 009°50'1212.0
2017-Feb-16 03:34N 38°43' W 009°50'1211.9
2017-Feb-16 02:34N 38°31' W 009°47'1211.9
2017-Feb-16 01:34N 38°20' W 009°44'1211.8
2017-Feb-16 00:33N 38°08' W 009°40'1211.6
2017-Feb-15 23:33N 37°57' W 009°37'1111.5
2017-Feb-15 22:34N 37°46' W 009°34'1111.3
2017-Feb-15 21:33N 37°35' W 009°31'  
2017-Feb-08 19:20N 36°31' W 006°26'  

Dump ship's entire track history